sensor_id;sensor_type;location;lat;lon;timestamp;temperature;humidity
27848;DHT22;15212;48.830;8.730;2022-12-11T00:00:39;-2.00;99.90
27848;DHT22;15212;48.830;8.730;2022-12-11T00:03:08;-2.00;99.90
27848;DHT22;15212;48.830;8.730;2022-12-11T00:05:39;-1.90;99.90
27848;DHT22;15212;48.830;8.730;2022-12-11T00:08:07;-1.90;99.90
27848;DHT22;15212;48.830;8.730;2022-12-11T00:10:36;-1.90;99.90
27848;DHT22;15212;48.830;8.730;2022-12-11T00:13:05;-1.80;99.90
27848;DHT22;15212;48.830;8.730;2022-12-11T00:15:33;-1.80;99.90
27848;DHT22;15212;48.830;8.730;2022-12-11T00:18:01;-1.80;99.90
27848;DHT22;15212;48.830;8.730;2022-12-11T00:20:30;-1.80;99.90
27848;DHT22;15212;48.830;8.730;2022-12-11T00:22:58;-1.90;99.90
27848;DHT22;15212;48.830;8.730;2022-12-11T00:25:27;-1.90;99.90
27848;DHT22;15212;48.830;8.730;2022-12-11T00:27:55;-1.90;99.90
27848;DHT22;15212;48.830;8.730;2022-12-11T00:30:23;-2.00;99.90
27848;DHT22;15212;48.830;8.730;2022-12-11T00:32:52;-2.00;99.90
27848;DHT22;15212;48.830;8.730;2022-12-11T00:35:20;-2.10;99.90
27848;DHT22;15212;48.830;8.730;2022-12-11T00:37:48;-2.10;99.90
27848;DHT22;15212;48.830;8.730;2022-12-11T00:40:17;-2.10;99.90
27848;DHT22;15212;48.830;8.730;2022-12-11T00:42:45;-2.10;99.90
27848;DHT22;15212;48.830;8.730;2022-12-11T00:45:13;-2.20;99.90
27848;DHT22;15212;48.830;8.730;2022-12-11T00:47:42;-2.20;99.90
27848;DHT22;15212;48.830;8.730;2022-12-11T00:50:10;-2.20;99.90
27848;DHT22;15212;48.830;8.730;2022-12-11T00:52:39;-2.20;99.90
27848;DHT22;15212;48.830;8.730;2022-12-11T00:55:07;-2.10;99.90
27848;DHT22;15212;48.830;8.730;2022-12-11T00:57:36;-2.10;99.90
27848;DHT22;15212;48.830;8.730;2022-12-11T01:00:05;-2.10;99.90
27848;DHT22;15212;48.830;8.730;2022-12-11T01:02:34;-2.10;99.90
27848;DHT22;15212;48.830;8.730;2022-12-11T01:05:03;-2.10;99.90
27848;DHT22;15212;48.830;8.730;2022-12-11T01:07:31;-2.10;99.90
27848;DHT22;15212;48.830;8.730;2022-12-11T01:10:00;-2.10;99.90
27848;DHT22;15212;48.830;8.730;2022-12-11T01:12:46;-2.10;99.90
27848;DHT22;15212;48.830;8.730;2022-12-11T01:15:14;-2.10;99.90
27848;DHT22;15212;48.830;8.730;2022-12-11T01:17:43;-2.10;99.90
27848;DHT22;15212;48.830;8.730;2022-12-11T01:20:12;-2.20;99.90
27848;DHT22;15212;48.830;8.730;2022-12-11T01:22:40;-2.30;99.90
27848;DHT22;15212;48.830;8.730;2022-12-11T01:25:09;-2.30;99.90
27848;DHT22;15212;48.830;8.730;2022-12-11T01:27:38;-2.30;99.90
27848;DHT22;15212;48.830;8.730;2022-12-11T01:30:08;-2.30;99.90
27848;DHT22;15212;48.830;8.730;2022-12-11T01:32:36;-2.40;99.90
27848;DHT22;15212;48.830;8.730;2022-12-11T01:35:06;-2.40;99.90
27848;DHT22;15212;48.830;8.730;2022-12-11T01:37:34;-2.40;99.90
27848;DHT22;15212;48.830;8.730;2022-12-11T01:40:05;-2.40;99.90
27848;DHT22;15212;48.830;8.730;2022-12-11T01:42:34;-2.40;99.90
27848;DHT22;15212;48.830;8.730;2022-12-11T01:48:38;-2.40;99.90
27848;DHT22;15212;48.830;8.730;2022-12-11T01:50:28;-2.40;99.90
27848;DHT22;15212;48.830;8.730;2022-12-11T01:52:58;-2.50;99.90
27848;DHT22;15212;48.830;8.730;2022-12-11T01:55:26;-2.50;99.90
27848;DHT22;15212;48.830;8.730;2022-12-11T01:57:55;-2.60;99.90
27848;DHT22;15212;48.830;8.730;2022-12-11T02:00:23;-2.60;99.90
27848;DHT22;15212;48.830;8.730;2022-12-11T02:02:52;-2.60;99.90
27848;DHT22;15212;48.830;8.730;2022-12-11T02:05:20;-2.70;99.90
27848;DHT22;15212;48.830;8.730;2022-12-11T02:07:51;-2.70;99.90
27848;DHT22;15212;48.830;8.730;2022-12-11T02:10:31;-2.80;99.90
27848;DHT22;15212;48.830;8.730;2022-12-11T02:13:10;-2.90;99.90
27848;DHT22;15212;48.830;8.730;2022-12-11T02:15:50;-3.00;99.90
27848;DHT22;15212;48.830;8.730;2022-12-11T02:27:10;-3.30;99.90
27848;DHT22;15212;48.830;8.730;2022-12-11T02:29:50;-3.40;99.90
27848;DHT22;15212;48.830;8.730;2022-12-11T02:32:33;-3.50;99.90
27848;DHT22;15212;48.830;8.730;2022-12-11T02:35:23;-3.50;99.90
27848;DHT22;15212;48.830;8.730;2022-12-11T02:38:02;-3.50;99.90
27848;DHT22;15212;48.830;8.730;2022-12-11T02:40:34;-3.60;99.90
27848;DHT22;15212;48.830;8.730;2022-12-11T02:43:06;-3.60;99.90
27848;DHT22;15212;48.830;8.730;2022-12-11T02:45:38;-3.60;99.90
27848;DHT22;15212;48.830;8.730;2022-12-11T02:48:09;-3.60;99.90
27848;DHT22;15212;48.830;8.730;2022-12-11T02:50:41;-3.60;99.90
27848;DHT22;15212;48.830;8.730;2022-12-11T02:53:14;-3.50;99.90
27848;DHT22;15212;48.830;8.730;2022-12-11T02:55:44;-3.50;99.90
27848;DHT22;15212;48.830;8.730;2022-12-11T02:58:17;-3.30;99.90
27848;DHT22;15212;48.830;8.730;2022-12-11T03:00:50;-3.30;99.90
27848;DHT22;15212;48.830;8.730;2022-12-11T03:03:19;-3.20;99.90
27848;DHT22;15212;48.830;8.730;2022-12-11T03:05:48;-3.20;99.90
27848;DHT22;15212;48.830;8.730;2022-12-11T03:08:16;-3.10;99.90
27848;DHT22;15212;48.830;8.730;2022-12-11T03:10:45;-3.10;99.90
27848;DHT22;15212;48.830;8.730;2022-12-11T03:13:16;-3.00;99.90
27848;DHT22;15212;48.830;8.730;2022-12-11T03:15:55;-2.90;99.90
27848;DHT22;15212;48.830;8.730;2022-12-11T03:24:19;-2.80;99.90
27848;DHT22;15212;48.830;8.730;2022-12-11T03:26:58;-2.70;99.90
27848;DHT22;15212;48.830;8.730;2022-12-11T03:29:36;-2.70;99.90
27848;DHT22;15212;48.830;8.730;2022-12-11T03:32:13;-2.70;99.90
27848;DHT22;15212;48.830;8.730;2022-12-11T03:34:59;-2.60;99.90
27848;DHT22;15212;48.830;8.730;2022-12-11T03:37:38;-2.60;99.90
27848;DHT22;15212;48.830;8.730;2022-12-11T03:40:10;-2.60;99.90
27848;DHT22;15212;48.830;8.730;2022-12-11T03:42:41;-2.50;99.90
27848;DHT22;15212;48.830;8.730;2022-12-11T03:45:12;-2.50;99.90
27848;DHT22;15212;48.830;8.730;2022-12-11T03:47:42;-2.50;99.90
27848;DHT22;15212;48.830;8.730;2022-12-11T03:50:15;-2.50;99.90
27848;DHT22;15212;48.830;8.730;2022-12-11T03:52:45;-2.50;99.90
27848;DHT22;15212;48.830;8.730;2022-12-11T03:55:16;-2.40;99.90
27848;DHT22;15212;48.830;8.730;2022-12-11T03:57:45;-2.40;99.90
27848;DHT22;15212;48.830;8.730;2022-12-11T04:00:17;-2.40;99.90
27848;DHT22;15212;48.830;8.730;2022-12-11T04:02:46;-2.40;99.90
27848;DHT22;15212;48.830;8.730;2022-12-11T04:05:16;-2.30;99.90
27848;DHT22;15212;48.830;8.730;2022-12-11T04:07:45;-2.30;99.90
27848;DHT22;15212;48.830;8.730;2022-12-11T04:10:13;-2.30;99.90
27848;DHT22;15212;48.830;8.730;2022-12-11T04:12:42;-2.30;99.90
27848;DHT22;15212;48.830;8.730;2022-12-11T04:15:10;-2.30;99.90
27848;DHT22;15212;48.830;8.730;2022-12-11T04:17:38;-2.30;99.90
27848;DHT22;15212;48.830;8.730;2022-12-11T04:20:24;-2.30;99.90
27848;DHT22;15212;48.830;8.730;2022-12-11T04:23:15;-2.30;99.90
27848;DHT22;15212;48.830;8.730;2022-12-11T04:26:15;-2.30;99.90
27848;DHT22;15212;48.830;8.730;2022-12-11T04:28:46;-2.30;99.90
27848;DHT22;15212;48.830;8.730;2022-12-11T04:31:17;-2.20;99.90
27848;DHT22;15212;48.830;8.730;2022-12-11T04:33:48;-2.20;99.90
27848;DHT22;15212;48.830;8.730;2022-12-11T04:36:17;-2.20;99.90
27848;DHT22;15212;48.830;8.730;2022-12-11T04:38:45;-2.20;99.90
27848;DHT22;15212;48.830;8.730;2022-12-11T04:41:15;-2.20;99.90
27848;DHT22;15212;48.830;8.730;2022-12-11T04:43:44;-2.20;99.90
27848;DHT22;15212;48.830;8.730;2022-12-11T04:46:17;-2.20;99.90
27848;DHT22;15212;48.830;8.730;2022-12-11T04:48:50;-2.20;99.90
27848;DHT22;15212;48.830;8.730;2022-12-11T04:51:19;-2.20;99.90
27848;DHT22;15212;48.830;8.730;2022-12-11T04:53:48;-2.10;99.90
27848;DHT22;15212;48.830;8.730;2022-12-11T04:56:16;-2.10;99.90
27848;DHT22;15212;48.830;8.730;2022-12-11T04:58:46;-2.10;99.90
27848;DHT22;15212;48.830;8.730;2022-12-11T05:01:18;-2.10;99.90
27848;DHT22;15212;48.830;8.730;2022-12-11T05:03:48;-2.10;99.90
27848;DHT22;15212;48.830;8.730;2022-12-11T05:06:16;-2.10;99.90
27848;DHT22;15212;48.830;8.730;2022-12-11T05:08:45;-2.10;99.90
27848;DHT22;15212;48.830;8.730;2022-12-11T05:11:14;-2.10;99.90
27848;DHT22;15212;48.830;8.730;2022-12-11T05:13:43;-2.10;99.90
27848;DHT22;15212;48.830;8.730;2022-12-11T05:16:14;-2.10;99.90
27848;DHT22;15212;48.830;8.730;2022-12-11T05:18:43;-2.10;99.90
27848;DHT22;15212;48.830;8.730;2022-12-11T05:21:14;-2.10;99.90
27848;DHT22;15212;48.830;8.730;2022-12-11T05:23:42;-2.00;99.90
27848;DHT22;15212;48.830;8.730;2022-12-11T05:26:14;-2.00;99.90
27848;DHT22;15212;48.830;8.730;2022-12-11T05:28:44;-2.00;99.90
27848;DHT22;15212;48.830;8.730;2022-12-11T05:31:15;-2.00;99.90
27848;DHT22;15212;48.830;8.730;2022-12-11T05:33:46;-2.00;99.90
27848;DHT22;15212;48.830;8.730;2022-12-11T05:36:28;-2.00;99.90
27848;DHT22;15212;48.830;8.730;2022-12-11T05:38:56;-2.00;99.90
27848;DHT22;15212;48.830;8.730;2022-12-11T05:41:26;-2.00;99.90
27848;DHT22;15212;48.830;8.730;2022-12-11T05:43:55;-2.00;99.90
27848;DHT22;15212;48.830;8.730;2022-12-11T05:46:27;-2.10;99.90
27848;DHT22;15212;48.830;8.730;2022-12-11T05:48:59;-2.10;99.90
27848;DHT22;15212;48.830;8.730;2022-12-11T05:51:28;-2.10;99.90
27848;DHT22;15212;48.830;8.730;2022-12-11T05:53:59;-2.20;99.90
27848;DHT22;15212;48.830;8.730;2022-12-11T05:56:30;-2.20;99.90
27848;DHT22;15212;48.830;8.730;2022-12-11T05:59:00;-2.20;99.90
27848;DHT22;15212;48.830;8.730;2022-12-11T06:01:35;-2.30;99.90
27848;DHT22;15212;48.830;8.730;2022-12-11T06:04:09;-2.40;99.90
27848;DHT22;15212;48.830;8.730;2022-12-11T06:06:39;-2.40;99.90
27848;DHT22;15212;48.830;8.730;2022-12-11T06:09:16;-2.40;99.90
27848;DHT22;15212;48.830;8.730;2022-12-11T06:11:41;-2.50;99.90
27848;DHT22;15212;48.830;8.730;2022-12-11T06:14:10;-2.50;99.90
27848;DHT22;15212;48.830;8.730;2022-12-11T06:16:39;-2.50;99.90
27848;DHT22;15212;48.830;8.730;2022-12-11T06:19:15;-2.60;99.90
27848;DHT22;15212;48.830;8.730;2022-12-11T06:21:45;-2.60;99.90
27848;DHT22;15212;48.830;8.730;2022-12-11T06:24:14;-2.70;99.90
27848;DHT22;15212;48.830;8.730;2022-12-11T06:26:42;-2.70;99.90
27848;DHT22;15212;48.830;8.730;2022-12-11T06:29:11;-2.60;99.90
27848;DHT22;15212;48.830;8.730;2022-12-11T06:31:39;-2.60;99.90
27848;DHT22;15212;48.830;8.730;2022-12-11T06:34:10;-2.60;99.90
27848;DHT22;15212;48.830;8.730;2022-12-11T06:36:39;-2.60;99.90
27848;DHT22;15212;48.830;8.730;2022-12-11T06:39:07;-2.60;99.90
27848;DHT22;15212;48.830;8.730;2022-12-11T06:41:36;-2.70;99.90
27848;DHT22;15212;48.830;8.730;2022-12-11T06:44:04;-2.70;99.90
27848;DHT22;15212;48.830;8.730;2022-12-11T06:46:32;-2.80;99.90
27848;DHT22;15212;48.830;8.730;2022-12-11T06:49:01;-2.80;99.90
27848;DHT22;15212;48.830;8.730;2022-12-11T06:51:29;-2.80;99.90
27848;DHT22;15212;48.830;8.730;2022-12-11T06:53:58;-2.90;99.90
27848;DHT22;15212;48.830;8.730;2022-12-11T06:56:26;-2.90;99.90
27848;DHT22;15212;48.830;8.730;2022-12-11T06:58:55;-2.90;99.90
27848;DHT22;15212;48.830;8.730;2022-12-11T07:01:25;-2.80;99.90
27848;DHT22;15212;48.830;8.730;2022-12-11T07:03:55;-2.80;99.90
27848;DHT22;15212;48.830;8.730;2022-12-11T07:06:26;-2.80;99.90
27848;DHT22;15212;48.830;8.730;2022-12-11T07:08:55;-2.80;99.90
27848;DHT22;15212;48.830;8.730;2022-12-11T07:11:24;-2.80;99.90
27848;DHT22;15212;48.830;8.730;2022-12-11T07:13:52;-2.70;99.90
27848;DHT22;15212;48.830;8.730;2022-12-11T07:16:21;-2.70;99.90
27848;DHT22;15212;48.830;8.730;2022-12-11T07:18:50;-2.70;99.90
27848;DHT22;15212;48.830;8.730;2022-12-11T07:21:19;-2.70;99.90
27848;DHT22;15212;48.830;8.730;2022-12-11T07:23:49;-2.70;99.90
27848;DHT22;15212;48.830;8.730;2022-12-11T07:26:19;-2.60;99.90
27848;DHT22;15212;48.830;8.730;2022-12-11T07:28:48;-2.60;99.90
27848;DHT22;15212;48.830;8.730;2022-12-11T07:31:24;-2.50;99.90
27848;DHT22;15212;48.830;8.730;2022-12-11T07:33:56;-2.40;99.90
27848;DHT22;15212;48.830;8.730;2022-12-11T07:36:27;-2.40;99.90
27848;DHT22;15212;48.830;8.730;2022-12-11T07:38:56;-2.30;99.90
27848;DHT22;15212;48.830;8.730;2022-12-11T07:41:25;-2.20;99.90
27848;DHT22;15212;48.830;8.730;2022-12-11T07:43:55;-2.20;99.90
27848;DHT22;15212;48.830;8.730;2022-12-11T07:46:25;-2.10;99.90
27848;DHT22;15212;48.830;8.730;2022-12-11T07:48:55;-2.00;99.90
27848;DHT22;15212;48.830;8.730;2022-12-11T07:51:30;-2.00;99.90
27848;DHT22;15212;48.830;8.730;2022-12-11T07:54:02;-1.90;99.90
27848;DHT22;15212;48.830;8.730;2022-12-11T07:56:33;-1.90;99.90
27848;DHT22;15212;48.830;8.730;2022-12-11T07:59:04;-1.80;99.90
27848;DHT22;15212;48.830;8.730;2022-12-11T08:01:34;-1.70;99.90
27848;DHT22;15212;48.830;8.730;2022-12-11T08:04:04;-1.70;99.90
27848;DHT22;15212;48.830;8.730;2022-12-11T08:06:36;-1.60;99.90
27848;DHT22;15212;48.830;8.730;2022-12-11T08:09:10;-1.60;99.90
27848;DHT22;15212;48.830;8.730;2022-12-11T08:11:38;-1.50;99.90
27848;DHT22;15212;48.830;8.730;2022-12-11T08:14:06;-1.50;99.90
27848;DHT22;15212;48.830;8.730;2022-12-11T08:16:35;-1.40;99.90
27848;DHT22;15212;48.830;8.730;2022-12-11T08:19:05;-1.40;99.90
27848;DHT22;15212;48.830;8.730;2022-12-11T08:21:34;-1.40;99.90
27848;DHT22;15212;48.830;8.730;2022-12-11T08:24:02;-1.30;99.90
27848;DHT22;15212;48.830;8.730;2022-12-11T08:26:41;-1.30;99.90
27848;DHT22;15212;48.830;8.730;2022-12-11T08:29:10;-1.20;99.90
27848;DHT22;15212;48.830;8.730;2022-12-11T08:31:39;-1.10;99.90
27848;DHT22;15212;48.830;8.730;2022-12-11T08:34:08;-1.00;99.90
27848;DHT22;15212;48.830;8.730;2022-12-11T08:36:38;-0.90;99.90
27848;DHT22;15212;48.830;8.730;2022-12-11T08:39:06;-0.90;99.90
27848;DHT22;15212;48.830;8.730;2022-12-11T08:41:35;-0.80;99.90
27848;DHT22;15212;48.830;8.730;2022-12-11T08:44:03;-0.70;99.90
27848;DHT22;15212;48.830;8.730;2022-12-11T08:46:32;-0.70;99.90
27848;DHT22;15212;48.830;8.730;2022-12-11T08:49:01;-0.70;99.90
27848;DHT22;15212;48.830;8.730;2022-12-11T08:51:29;-0.60;99.90
27848;DHT22;15212;48.830;8.730;2022-12-11T08:53:59;-0.60;99.90
27848;DHT22;15212;48.830;8.730;2022-12-11T08:56:28;-0.60;99.90
27848;DHT22;15212;48.830;8.730;2022-12-11T08:59:01;-0.60;99.90
27848;DHT22;15212;48.830;8.730;2022-12-11T09:01:31;-0.60;99.90
27848;DHT22;15212;48.830;8.730;2022-12-11T09:04:00;-0.60;99.90
27848;DHT22;15212;48.830;8.730;2022-12-11T09:06:29;-0.50;99.90
27848;DHT22;15212;48.830;8.730;2022-12-11T09:09:00;-0.50;99.90
27848;DHT22;15212;48.830;8.730;2022-12-11T09:11:31;-0.50;99.90
27848;DHT22;15212;48.830;8.730;2022-12-11T09:14:01;-0.50;99.90
27848;DHT22;15212;48.830;8.730;2022-12-11T09:16:30;-0.40;99.90
27848;DHT22;15212;48.830;8.730;2022-12-11T09:18:59;-0.40;99.90
27848;DHT22;15212;48.830;8.730;2022-12-11T09:21:28;-0.40;99.90
27848;DHT22;15212;48.830;8.730;2022-12-11T09:23:59;-0.40;99.90
27848;DHT22;15212;48.830;8.730;2022-12-11T09:26:28;-0.40;99.90
27848;DHT22;15212;48.830;8.730;2022-12-11T09:28:57;-0.40;99.90
27848;DHT22;15212;48.830;8.730;2022-12-11T09:31:31;-0.30;99.90
27848;DHT22;15212;48.830;8.730;2022-12-11T09:34:03;-0.30;99.90
27848;DHT22;15212;48.830;8.730;2022-12-11T09:36:33;-0.20;99.90
27848;DHT22;15212;48.830;8.730;2022-12-11T09:39:03;-0.20;99.90
27848;DHT22;15212;48.830;8.730;2022-12-11T09:41:38;-0.10;99.90
27848;DHT22;15212;48.830;8.730;2022-12-11T09:44:37;0.00;99.90
27848;DHT22;15212;48.830;8.730;2022-12-11T09:47:33;0.10;99.90
27848;DHT22;15212;48.830;8.730;2022-12-11T09:55:30;0.20;99.90
27848;DHT22;15212;48.830;8.730;2022-12-11T09:58:12;0.30;99.90
27848;DHT22;15212;48.830;8.730;2022-12-11T10:00:50;0.30;99.90
27848;DHT22;15212;48.830;8.730;2022-12-11T10:06:06;0.40;99.90
27848;DHT22;15212;48.830;8.730;2022-12-11T10:08:49;0.50;99.90
27848;DHT22;15212;48.830;8.730;2022-12-11T10:14:48;0.50;99.90
27848;DHT22;15212;48.830;8.730;2022-12-11T10:17:27;0.50;99.90
27848;DHT22;15212;48.830;8.730;2022-12-11T10:20:06;0.40;99.90
27848;DHT22;15212;48.830;8.730;2022-12-11T10:22:32;0.40;99.90
27848;DHT22;15212;48.830;8.730;2022-12-11T10:25:05;0.40;99.90
27848;DHT22;15212;48.830;8.730;2022-12-11T10:27:37;0.50;99.90
27848;DHT22;15212;48.830;8.730;2022-12-11T10:30:25;0.50;99.90
27848;DHT22;15212;48.830;8.730;2022-12-11T10:33:06;0.50;99.90
27848;DHT22;15212;48.830;8.730;2022-12-11T10:35:52;0.50;99.90
27848;DHT22;15212;48.830;8.730;2022-12-11T10:38:27;0.70;99.90
27848;DHT22;15212;48.830;8.730;2022-12-11T10:41:01;0.80;99.90
27848;DHT22;15212;48.830;8.730;2022-12-11T10:43:34;1.00;99.90
27848;DHT22;15212;48.830;8.730;2022-12-11T10:46:05;1.10;99.90
27848;DHT22;15212;48.830;8.730;2022-12-11T10:48:44;1.10;99.90
27848;DHT22;15212;48.830;8.730;2022-12-11T10:51:23;1.10;99.90
27848;DHT22;15212;48.830;8.730;2022-12-11T10:53:54;1.00;99.90
27848;DHT22;15212;48.830;8.730;2022-12-11T10:56:27;1.00;99.90
27848;DHT22;15212;48.830;8.730;2022-12-11T10:58:56;1.00;99.90
27848;DHT22;15212;48.830;8.730;2022-12-11T11:01:27;1.10;99.90
27848;DHT22;15212;48.830;8.730;2022-12-11T11:04:14;1.20;99.90
27848;DHT22;15212;48.830;8.730;2022-12-11T11:09:48;1.20;99.90
27848;DHT22;15212;48.830;8.730;2022-12-11T11:12:26;1.20;99.90
27848;DHT22;15212;48.830;8.730;2022-12-11T11:15:06;1.20;99.90
27848;DHT22;15212;48.830;8.730;2022-12-11T11:17:41;1.30;99.90
27848;DHT22;15212;48.830;8.730;2022-12-11T11:20:14;1.40;99.90
27848;DHT22;15212;48.830;8.730;2022-12-11T11:22:50;1.40;99.90
27848;DHT22;15212;48.830;8.730;2022-12-11T11:25:28;1.50;99.90
27848;DHT22;15212;48.830;8.730;2022-12-11T11:28:14;1.40;99.90
27848;DHT22;15212;48.830;8.730;2022-12-11T11:30:41;1.30;99.90
27848;DHT22;15212;48.830;8.730;2022-12-11T11:33:17;1.30;99.90
27848;DHT22;15212;48.830;8.730;2022-12-11T11:35:58;1.20;99.90
27848;DHT22;15212;48.830;8.730;2022-12-11T11:41:33;1.10;99.90
27848;DHT22;15212;48.830;8.730;2022-12-11T11:44:32;1.00;99.90
27848;DHT22;15212;48.830;8.730;2022-12-11T11:47:13;1.00;99.90
27848;DHT22;15212;48.830;8.730;2022-12-11T11:52:39;1.00;99.90
27848;DHT22;15212;48.830;8.730;2022-12-11T11:55:40;0.90;99.90
27848;DHT22;15212;48.830;8.730;2022-12-11T11:58:19;0.90;99.90
27848;DHT22;15212;48.830;8.730;2022-12-11T12:00:53;1.00;99.90
27848;DHT22;15212;48.830;8.730;2022-12-11T12:03:23;0.90;99.90
27848;DHT22;15212;48.830;8.730;2022-12-11T12:12:31;0.80;99.90
27848;DHT22;15212;48.830;8.730;2022-12-11T12:15:28;0.80;99.90
27848;DHT22;15212;48.830;8.730;2022-12-11T12:18:30;0.80;99.90
27848;DHT22;15212;48.830;8.730;2022-12-11T12:21:34;0.70;99.90
27848;DHT22;15212;48.830;8.730;2022-12-11T12:24:10;0.70;99.90
27848;DHT22;15212;48.830;8.730;2022-12-11T12:26:56;0.70;99.90
27848;DHT22;15212;48.830;8.730;2022-12-11T12:29:50;0.60;99.90
27848;DHT22;15212;48.830;8.730;2022-12-11T12:32:42;0.60;99.90
27848;DHT22;15212;48.830;8.730;2022-12-11T12:35:29;0.60;99.90
27848;DHT22;15212;48.830;8.730;2022-12-11T12:41:00;0.70;99.90
27848;DHT22;15212;48.830;8.730;2022-12-11T12:46:42;0.50;99.90
27848;DHT22;15212;48.830;8.730;2022-12-11T12:49:48;0.60;99.90
27848;DHT22;15212;48.830;8.730;2022-12-11T12:52:15;0.60;99.90
27848;DHT22;15212;48.830;8.730;2022-12-11T12:55:18;0.50;99.90
27848;DHT22;15212;48.830;8.730;2022-12-11T12:58:00;0.40;99.90
27848;DHT22;15212;48.830;8.730;2022-12-11T13:00:39;0.40;99.90
27848;DHT22;15212;48.830;8.730;2022-12-11T13:03:30;0.40;99.90
27848;DHT22;15212;48.830;8.730;2022-12-11T13:11:44;0.40;99.90
27848;DHT22;15212;48.830;8.730;2022-12-11T13:16:51;0.30;99.90
27848;DHT22;15212;48.830;8.730;2022-12-11T13:19:27;0.30;99.90
27848;DHT22;15212;48.830;8.730;2022-12-11T13:22:20;0.40;99.90
27848;DHT22;15212;48.830;8.730;2022-12-11T13:24:44;0.30;99.90
27848;DHT22;15212;48.830;8.730;2022-12-11T13:27:25;0.30;99.90
27848;DHT22;15212;48.830;8.730;2022-12-11T13:33:07;0.40;99.90
27848;DHT22;15212;48.830;8.730;2022-12-11T13:35:42;0.40;99.90
27848;DHT22;15212;48.830;8.730;2022-12-11T13:38:15;0.40;99.90
27848;DHT22;15212;48.830;8.730;2022-12-11T13:40:50;0.30;99.90
27848;DHT22;15212;48.830;8.730;2022-12-11T13:43:22;0.30;99.90
27848;DHT22;15212;48.830;8.730;2022-12-11T13:45:55;0.20;99.90
27848;DHT22;15212;48.830;8.730;2022-12-11T13:48:45;0.10;99.90
27848;DHT22;15212;48.830;8.730;2022-12-11T13:51:24;0.10;99.90
27848;DHT22;15212;48.830;8.730;2022-12-11T13:54:12;0.00;99.90
27848;DHT22;15212;48.830;8.730;2022-12-11T13:59:37;0.10;99.90
27848;DHT22;15212;48.830;8.730;2022-12-11T14:05:05;0.00;99.90
27848;DHT22;15212;48.830;8.730;2022-12-11T14:07:39;0.00;99.90
27848;DHT22;15212;48.830;8.730;2022-12-11T14:13:02;0.00;99.90
27848;DHT22;15212;48.830;8.730;2022-12-11T14:15:33;-0.10;99.90
27848;DHT22;15212;48.830;8.730;2022-12-11T14:18:04;-0.10;99.90
27848;DHT22;15212;48.830;8.730;2022-12-11T14:20:34;-0.10;99.90
27848;DHT22;15212;48.830;8.730;2022-12-11T14:23:12;-0.10;99.90
27848;DHT22;15212;48.830;8.730;2022-12-11T14:25:51;0.00;99.90
27848;DHT22;15212;48.830;8.730;2022-12-11T14:28:22;0.00;99.90
27848;DHT22;15212;48.830;8.730;2022-12-11T14:30:55;0.00;99.90
27848;DHT22;15212;48.830;8.730;2022-12-11T14:33:28;0.00;99.90
27848;DHT22;15212;48.830;8.730;2022-12-11T14:35:58;0.00;99.90
27848;DHT22;15212;48.830;8.730;2022-12-11T14:38:38;0.00;99.90
27848;DHT22;15212;48.830;8.730;2022-12-11T14:41:24;0.00;99.90
27848;DHT22;15212;48.830;8.730;2022-12-11T14:44:00;0.00;99.90
27848;DHT22;15212;48.830;8.730;2022-12-11T14:46:33;0.00;99.90
27848;DHT22;15212;48.830;8.730;2022-12-11T14:51:50;-0.10;99.90
27848;DHT22;15212;48.830;8.730;2022-12-11T14:54:37;-0.10;99.90
27848;DHT22;15212;48.830;8.730;2022-12-11T14:57:12;-0.20;99.90
27848;DHT22;15212;48.830;8.730;2022-12-11T14:59:43;-0.20;99.90
27848;DHT22;15212;48.830;8.730;2022-12-11T15:02:24;-0.20;99.90
27848;DHT22;15212;48.830;8.730;2022-12-11T15:05:06;-0.30;99.90
27848;DHT22;15212;48.830;8.730;2022-12-11T15:11:02;-0.30;99.90
27848;DHT22;15212;48.830;8.730;2022-12-11T15:13:35;-0.30;99.90
27848;DHT22;15212;48.830;8.730;2022-12-11T15:16:06;-0.40;99.90
27848;DHT22;15212;48.830;8.730;2022-12-11T15:18:38;-0.40;99.90
27848;DHT22;15212;48.830;8.730;2022-12-11T15:21:10;-0.50;99.90
27848;DHT22;15212;48.830;8.730;2022-12-11T15:23:48;-0.50;99.90
27848;DHT22;15212;48.830;8.730;2022-12-11T15:26:37;-0.60;99.90
27848;DHT22;15212;48.830;8.730;2022-12-11T15:29:25;-0.60;99.90
27848;DHT22;15212;48.830;8.730;2022-12-11T15:31:34;-0.70;99.90
27848;DHT22;15212;48.830;8.730;2022-12-11T15:34:02;-0.60;99.90
27848;DHT22;15212;48.830;8.730;2022-12-11T15:36:35;-0.70;99.90
27848;DHT22;15212;48.830;8.730;2022-12-11T15:39:04;-0.70;99.90
27848;DHT22;15212;48.830;8.730;2022-12-11T15:41:34;-0.80;99.90
27848;DHT22;15212;48.830;8.730;2022-12-11T15:44:03;-0.90;99.90
27848;DHT22;15212;48.830;8.730;2022-12-11T15:46:34;-1.00;99.90
27848;DHT22;15212;48.830;8.730;2022-12-11T15:49:08;-1.00;99.90
27848;DHT22;15212;48.830;8.730;2022-12-11T15:51:40;-1.00;99.90
27848;DHT22;15212;48.830;8.730;2022-12-11T15:54:09;-1.00;99.90
27848;DHT22;15212;48.830;8.730;2022-12-11T15:56:37;-1.10;99.90
27848;DHT22;15212;48.830;8.730;2022-12-11T15:59:06;-1.10;99.90
27848;DHT22;15212;48.830;8.730;2022-12-11T16:01:35;-1.10;99.90
27848;DHT22;15212;48.830;8.730;2022-12-11T16:04:04;-1.20;99.90
27848;DHT22;15212;48.830;8.730;2022-12-11T16:06:32;-1.20;99.90
27848;DHT22;15212;48.830;8.730;2022-12-11T16:09:00;-1.20;99.90
27848;DHT22;15212;48.830;8.730;2022-12-11T16:11:30;-1.30;99.90
27848;DHT22;15212;48.830;8.730;2022-12-11T16:13:58;-1.30;99.90
27848;DHT22;15212;48.830;8.730;2022-12-11T16:16:29;-1.30;99.90
27848;DHT22;15212;48.830;8.730;2022-12-11T16:18:58;-1.20;99.90
27848;DHT22;15212;48.830;8.730;2022-12-11T16:21:26;-1.20;99.90
27848;DHT22;15212;48.830;8.730;2022-12-11T16:23:54;-1.20;99.90
27848;DHT22;15212;48.830;8.730;2022-12-11T16:26:23;-1.20;99.90
27848;DHT22;15212;48.830;8.730;2022-12-11T16:28:51;-1.30;99.90
27848;DHT22;15212;48.830;8.730;2022-12-11T16:31:19;-1.30;99.90
27848;DHT22;15212;48.830;8.730;2022-12-11T16:33:48;-1.30;99.90
27848;DHT22;15212;48.830;8.730;2022-12-11T16:36:18;-1.20;99.90
27848;DHT22;15212;48.830;8.730;2022-12-11T16:38:48;-1.20;99.90
27848;DHT22;15212;48.830;8.730;2022-12-11T16:41:16;-1.20;99.90
27848;DHT22;15212;48.830;8.730;2022-12-11T16:43:45;-1.20;99.90
27848;DHT22;15212;48.830;8.730;2022-12-11T16:46:18;-1.20;99.90
27848;DHT22;15212;48.830;8.730;2022-12-11T16:48:47;-1.20;99.90
27848;DHT22;15212;48.830;8.730;2022-12-11T16:51:16;-1.20;99.90
27848;DHT22;15212;48.830;8.730;2022-12-11T16:53:45;-1.20;99.90
27848;DHT22;15212;48.830;8.730;2022-12-11T16:56:13;-1.20;99.90
27848;DHT22;15212;48.830;8.730;2022-12-11T16:58:41;-1.20;99.90
27848;DHT22;15212;48.830;8.730;2022-12-11T17:01:11;-1.20;99.90
27848;DHT22;15212;48.830;8.730;2022-12-11T17:03:42;-1.20;99.90
27848;DHT22;15212;48.830;8.730;2022-12-11T17:06:13;-1.20;99.90
27848;DHT22;15212;48.830;8.730;2022-12-11T17:08:43;-1.20;99.90
27848;DHT22;15212;48.830;8.730;2022-12-11T17:11:14;-1.20;99.90
27848;DHT22;15212;48.830;8.730;2022-12-11T17:13:44;-1.20;99.90
27848;DHT22;15212;48.830;8.730;2022-12-11T17:16:15;-1.20;99.90
27848;DHT22;15212;48.830;8.730;2022-12-11T17:18:43;-1.20;99.90
27848;DHT22;15212;48.830;8.730;2022-12-11T17:21:14;-1.30;99.90
27848;DHT22;15212;48.830;8.730;2022-12-11T17:23:44;-1.30;99.90
27848;DHT22;15212;48.830;8.730;2022-12-11T17:26:13;-1.30;99.90